Time,TemperatureF,DewpointF,PressureIn,WindDirection,WindDirectionDegrees,WindSpeedMPH,WindSpeedGustMPH,Humidity,HourlyPrecipIn,Conditions,Clouds,dailyrainin,SoftwareType,DateUTC
2013-01-31 00:00:00,51.1,51.1,29.41,WSW,248,4.0,4.0,100,0.00,,,0.00,Wunderground v.1.15,2013-01-31 05:00:00,
2013-01-31 00:10:00,51.1,51.1,29.40,SW,219,3.0,5.0,100,0.00,,,0.00,Wunderground v.1.15,2013-01-31 05:10:00,
2013-01-31 00:20:00,51.3,51.3,29.40,SSW,209,5.0,5.0,100,0.00,,,0.00,Wunderground v.1.15,2013-01-31 05:20:00,
2013-01-31 00:30:00,51.3,51.3,29.40,SSW,195,4.0,5.0,100,0.00,,,0.00,Wunderground v.1.15,2013-01-31 05:30:00,
2013-01-31 00:40:00,51.4,51.4,29.39,SSW,193,6.0,6.0,100,0.00,,,0.00,Wunderground v.1.15,2013-01-31 05:40:00,
2013-01-31 00:50:00,51.4,51.4,29.38,SSW,193,4.0,4.0,100,0.00,,,0.00,Wunderground v.1.15,2013-01-31 05:50:00,
2013-01-31 01:00:00,51.6,51.6,29.38,SW,225,5.0,10.0,100,0.00,,,0.00,Wunderground v.1.15,2013-01-31 06:00:00,
2013-01-31 01:10:00,51.6,51.6,29.37,SW,215,4.0,4.0,100,0.00,,,0.00,Wunderground v.1.15,2013-01-31 06:10:00,
2013-01-31 01:20:00,51.7,51.7,29.36,SSW,213,5.0,5.0,100,0.00,,,0.00,Wunderground v.1.15,2013-01-31 06:20:00,
2013-01-31 01:30:00,51.7,51.7,29.36,SSW,198,5.0,5.0,100,0.00,,,0.00,Wunderground v.1.15,2013-01-31 06:30:00,
2013-01-31 01:40:00,51.7,51.7,29.36,South,185,5.0,5.0,100,0.00,,,0.00,Wunderground v.1.15,2013-01-31 06:40:00,
2013-01-31 01:50:00,52.0,52.0,29.35,South,188,4.0,4.0,100,0.00,,,0.00,Wunderground v.1.15,2013-01-31 06:50:00,
2013-01-31 02:00:00,52.9,52.9,29.35,SW,214,5.0,5.0,100,0.00,,,0.00,Wunderground v.1.15,2013-01-31 07:00:00,
2013-01-31 02:10:00,53.3,53.3,29.33,SE,141,5.0,5.0,100,0.00,,,0.00,Wunderground v.1.15,2013-01-31 07:10:00,
2013-01-31 02:20:00,52.9,52.9,29.31,SSW,193,5.0,5.0,100,0.00,,,0.00,Wunderground v.1.15,2013-01-31 07:20:00,
2013-01-31 02:30:00,52.5,52.5,29.31,South,190,5.0,5.0,100,0.00,,,0.00,Wunderground v.1.15,2013-01-31 07:30:00,
2013-01-31 02:40:00,52.8,52.8,29.30,South,190,6.0,6.0,100,0.00,,,0.00,Wunderground v.1.15,2013-01-31 07:40:00,
2013-01-31 02:50:00,52.6,52.6,29.28,SSE,162,7.0,7.0,100,0.00,,,0.00,Wunderground v.1.15,2013-01-31 07:50:00,
2013-01-31 03:00:00,52.9,52.9,29.28,SW,230,6.0,6.0,100,0.00,,,0.00,Wunderground v.1.15,2013-01-31 08:00:00,
2013-01-31 03:10:00,53.5,53.5,29.27,South,182,6.0,9.0,100,0.00,,,0.00,Wunderground v.1.15,2013-01-31 08:10:00,
2013-01-31 03:20:00,53.6,53.6,29.25,SW,219,7.0,15.0,100,0.00,,,0.00,Wunderground v.1.15,2013-01-31 08:20:00,
2013-01-31 03:30:00,53.6,53.6,29.25,SSW,200,8.0,14.0,100,0.00,,,0.00,Wunderground v.1.15,2013-01-31 08:30:00,
2013-01-31 03:40:00,53.6,53.6,29.24,South,177,8.0,8.0,100,0.00,,,0.00,Wunderground v.1.15,2013-01-31 08:40:00,
2013-01-31 03:50:00,53.8,53.8,29.22,SE,140,9.0,19.0,100,0.00,,,0.00,Wunderground v.1.15,2013-01-31 08:50:00,
2013-01-31 04:00:00,54.2,54.2,29.22,South,191,8.0,8.0,100,0.00,,,0.00,Wunderground v.1.15,2013-01-31 09:00:00,
2013-01-31 04:10:00,54.4,54.4,29.20,ESE,110,9.0,13.0,100,0.00,,,0.00,Wunderground v.1.15,2013-01-31 09:10:00,
2013-01-31 04:20:00,54.2,54.2,29.18,SSE,160,9.0,9.0,100,0.00,,,0.00,Wunderground v.1.15,2013-01-31 09:20:00,
2013-01-31 04:30:00,54.2,54.2,29.18,ESE,110,10.0,15.0,100,0.00,,,0.00,Wunderground v.1.15,2013-01-31 09:30:00,
2013-01-31 04:40:00,54.1,54.1,29.17,SSE,150,9.0,9.0,100,0.00,,,0.00,Wunderground v.1.15,2013-01-31 09:40:00,
2013-01-31 04:50:00,54.1,54.1,29.14,WNW,284,10.0,13.0,100,0.00,,,0.00,Wunderground v.1.15,2013-01-31 09:50:00,
2013-01-31 05:00:00,54.1,54.1,29.14,SSW,212,8.0,9.0,100,0.00,,,0.00,Wunderground v.1.15,2013-01-31 10:00:00,
2013-01-31 05:10:00,54.2,54.2,29.13,SSW,205,9.0,9.0,100,0.00,,,0.00,Wunderground v.1.15,2013-01-31 10:10:00,
2013-01-31 05:20:00,54.5,54.5,29.12,SE,127,12.0,12.0,100,0.00,,,0.00,Wunderground v.1.15,2013-01-31 10:20:00,
2013-01-31 05:30:00,54.4,54.4,29.12,SE,129,12.0,30.0,100,0.00,,,0.00,Wunderground v.1.15,2013-01-31 10:30:00,
2013-01-31 05:40:00,54.7,54.4,29.09,ESE,110,14.0,14.0,99,0.00,,,0.00,Wunderground v.1.15,2013-01-31 10:40:00,
2013-01-31 05:50:00,54.1,53.8,29.08,SE,128,11.0,11.0,99,0.00,,,0.00,Wunderground v.1.15,2013-01-31 10:50:00,
2013-01-31 06:00:00,53.3,53.0,29.08,SE,138,10.0,15.0,99,0.00,,,0.00,Wunderground v.1.15,2013-01-31 11:00:00,
2013-01-31 06:10:00,53.3,53.3,29.09,SSW,208,12.0,12.0,100,0.00,,,0.00,Wunderground v.1.15,2013-01-31 11:10:00,
2013-01-31 06:20:00,53.3,53.3,29.07,SSE,162,11.0,16.0,100,0.00,,,0.00,Wunderground v.1.15,2013-01-31 11:20:00,
2013-01-31 06:30:00,53.5,53.5,29.07,West,259,11.0,12.0,100,0.00,,,0.00,Wunderground v.1.15,2013-01-31 11:30:00,
2013-01-31 06:40:00,53.5,53.5,29.06,ESE,114,12.0,15.0,100,0.00,,,0.00,Wunderground v.1.15,2013-01-31 11:40:00,
2013-01-31 06:50:00,53.5,53.5,29.05,South,176,11.0,11.0,100,0.00,,,0.00,Wunderground v.1.15,2013-01-31 11:50:00,
2013-01-31 07:00:00,53.1,53.1,29.05,ESE,123,10.0,18.0,100,0.00,,,0.00,Wunderground v.1.15,2013-01-31 12:00:00,
2013-01-31 07:10:00,52.9,52.9,29.02,SSE,162,10.0,10.0,100,0.00,,,0.00,Wunderground v.1.15,2013-01-31 12:10:00,
2013-01-31 07:20:00,53.1,53.1,29.02,South,179,10.0,10.0,100,0.00,,,0.00,Wunderground v.1.15,2013-01-31 12:20:00,
2013-01-31 07:30:00,52.9,52.9,29.02,ESE,121,10.0,10.0,100,0.00,,,0.00,Wunderground v.1.15,2013-01-31 12:30:00,
2013-01-31 07:40:00,53.3,53.3,28.98,SE,130,12.0,12.0,100,0.00,,,0.00,Wunderground v.1.15,2013-01-31 12:40:00,
2013-01-31 07:50:00,53.9,53.9,28.95,SSE,164,14.0,15.0,100,0.00,,,0.00,Wunderground v.1.15,2013-01-31 12:50:00,
2013-01-31 08:00:00,54.4,54.4,28.95,SE,143,13.0,18.0,100,0.00,,,0.00,Wunderground v.1.15,2013-01-31 13:00:00,
2013-01-31 08:10:00,55.3,55.3,28.93,South,169,16.0,16.0,100,0.00,,,0.00,Wunderground v.1.15,2013-01-31 13:10:00,
2013-01-31 08:20:00,55.6,55.3,28.92,SE,144,13.0,19.0,99,0.00,,,0.00,Wunderground v.1.15,2013-01-31 13:20:00,
2013-01-31 08:30:00,55.6,55.3,28.92,South,174,11.0,11.0,99,0.00,,,0.00,Wunderground v.1.15,2013-01-31 13:30:00,
2013-01-31 08:40:00,55.7,55.4,28.93,South,179,11.0,11.0,99,0.00,,,0.00,Wunderground v.1.15,2013-01-31 13:40:00,
2013-01-31 08:50:00,55.4,54.8,28.93,SW,233,11.0,11.0,98,0.00,,,0.00,Wunderground v.1.15,2013-01-31 13:50:00,
2013-01-31 09:00:00,54.8,54.2,28.93,SSW,208,6.0,6.0,98,0.00,,,0.00,Wunderground v.1.15,2013-01-31 14:00:00,
2013-01-31 09:10:00,54.5,54.5,28.92,South,185,6.0,6.0,100,0.00,,,0.00,Wunderground v.1.15,2013-01-31 14:10:00,
2013-01-31 09:20:00,54.2,53.9,28.91,SW,233,6.0,6.0,99,0.00,,,0.00,Wunderground v.1.15,2013-01-31 14:20:00,
2013-01-31 09:30:00,54.1,53.8,28.91,SE,137,4.0,4.0,99,0.00,,,0.00,Wunderground v.1.15,2013-01-31 14:30:00,
2013-01-31 09:40:00,53.8,53.5,28.89,South,183,8.0,8.0,99,0.00,,,0.00,Wunderground v.1.15,2013-01-31 14:40:00,
2013-01-31 09:50:00,53.9,53.6,28.87,SE,143,9.0,15.0,99,0.00,,,0.00,Wunderground v.1.15,2013-01-31 14:50:00,
2013-01-31 10:00:00,53.9,53.3,28.87,SW,231,8.0,8.0,98,0.00,,,0.00,Wunderground v.1.15,2013-01-31 15:00:00,
2013-01-31 10:10:00,53.6,53.3,28.85,SSE,153,6.0,6.0,99,0.00,,,0.00,Wunderground v.1.15,2013-01-31 15:10:00,
2013-01-31 10:20:00,53.5,53.2,28.84,East,100,8.0,8.0,99,0.00,,,0.00,Wunderground v.1.15,2013-01-31 15:20:00,
2013-01-31 10:30:00,53.2,52.9,28.84,NNW,334,7.0,7.0,99,0.00,,,0.00,Wunderground v.1.15,2013-01-31 15:30:00,
2013-01-31 10:40:00,52.9,52.9,28.83,SSW,203,5.0,5.0,100,0.00,,,0.00,Wunderground v.1.15,2013-01-31 15:40:00,
2013-01-31 10:50:00,52.8,52.8,28.81,SSW,202,5.0,6.0,100,0.00,,,0.00,Wunderground v.1.15,2013-01-31 15:50:00,
2013-01-31 11:00:00,52.9,52.9,28.81,SSE,162,8.0,8.0,100,0.00,,,0.00,Wunderground v.1.15,2013-01-31 16:00:00,
2013-01-31 11:10:00,52.8,52.8,28.79,SSW,195,8.0,8.0,100,0.00,,,0.00,Wunderground v.1.15,2013-01-31 16:10:00,
2013-01-31 11:20:00,52.6,52.6,28.77,WSW,238,8.0,8.0,100,0.00,,,0.00,Wunderground v.1.15,2013-01-31 16:20:00,
2013-01-31 11:30:00,52.2,52.2,28.77,SSW,203,9.0,9.0,100,0.00,,,0.00,Wunderground v.1.15,2013-01-31 16:30:00,
2013-01-31 11:40:00,51.0,50.7,28.77,SW,217,8.0,8.0,99,0.00,,,0.00,Wunderground v.1.15,2013-01-31 16:40:00,
2013-01-31 11:50:00,51.0,49.9,28.78,SW,217,13.0,13.0,96,0.00,,,0.00,Wunderground v.1.15,2013-01-31 16:50:00,
2013-01-31 12:00:00,50.8,47.4,28.78,WSW,237,12.0,13.0,88,0.00,,,0.00,Wunderground v.1.15,2013-01-31 17:00:00,
2013-01-31 12:10:00,50.1,46.1,28.80,West,264,16.0,17.0,86,0.00,,,0.00,Wunderground v.1.15,2013-01-31 17:10:00,
2013-01-31 12:20:00,48.8,45.4,28.81,WSW,252,14.0,14.0,88,0.00,,,0.00,Wunderground v.1.15,2013-01-31 17:20:00,
2013-01-31 12:30:00,47.7,43.7,28.81,SW,236,11.0,12.0,86,0.00,,,0.00,Wunderground v.1.15,2013-01-31 17:30:00,
2013-01-31 12:40:00,47.4,44.0,28.83,WSW,240,9.0,11.0,88,0.00,,,0.00,Wunderground v.1.15,2013-01-31 17:40:00,
2013-01-31 12:50:00,47.1,43.4,28.86,WSW,257,10.0,12.0,87,0.00,,,0.00,Wunderground v.1.15,2013-01-31 17:50:00,
2013-01-31 13:00:00,46.4,42.1,28.86,West,266,13.0,15.0,85,0.00,,,0.00,Wunderground v.1.15,2013-01-31 18:00:00,
2013-01-31 13:10:00,45.7,41.1,28.88,West,266,13.0,13.0,84,0.00,,,0.00,Wunderground v.1.15,2013-01-31 18:10:00,
2013-01-31 13:20:00,45.7,40.8,28.90,WSW,244,9.0,9.0,83,0.00,,,0.00,Wunderground v.1.15,2013-01-31 18:20:00,
2013-01-31 13:30:00,46.4,39.9,28.90,SW,219,10.0,13.0,78,0.00,,,0.00,Wunderground v.1.15,2013-01-31 18:30:00,
2013-01-31 13:40:00,46.2,38.0,28.91,WSW,248,11.0,11.0,73,0.00,,,0.00,Wunderground v.1.15,2013-01-31 18:40:00,
2013-01-31 13:50:00,44.5,39.0,28.92,West,270,11.0,17.0,81,0.00,,,0.00,Wunderground v.1.15,2013-01-31 18:50:00,
2013-01-31 14:00:00,42.3,39.0,28.92,WSW,252,12.0,22.0,88,0.00,,,0.00,Wunderground v.1.15,2013-01-31 19:00:00,
2013-01-31 14:10:00,42.9,39.3,28.93,SW,226,12.0,17.0,87,0.00,,,0.00,Wunderground v.1.15,2013-01-31 19:10:00,
2013-01-31 14:20:00,43.2,37.8,28.94,West,269,13.0,18.0,81,0.00,,,0.00,Wunderground v.1.15,2013-01-31 19:20:00,
2013-01-31 14:30:00,43.1,37.3,28.94,West,262,11.0,14.0,80,0.00,,,0.00,Wunderground v.1.15,2013-01-31 19:30:00,
2013-01-31 14:40:00,43.2,36.1,28.96,West,261,11.0,11.0,76,0.00,,,0.00,Wunderground v.1.15,2013-01-31 19:40:00,
2013-01-31 14:50:00,43.3,34.9,28.97,WSW,245,12.0,17.0,72,0.00,,,0.00,Wunderground v.1.15,2013-01-31 19:50:00,
2013-01-31 15:00:00,43.1,33.6,28.97,West,260,12.0,12.0,69,0.00,,,0.00,Wunderground v.1.15,2013-01-31 20:00:00,
2013-01-31 15:10:00,43.5,32.1,28.98,WSW,252,13.0,13.0,64,0.00,,,0.00,Wunderground v.1.15,2013-01-31 20:10:00,
2013-01-31 15:20:00,42.9,35.5,29.00,West,278,11.0,11.0,75,0.00,,,0.00,Wunderground v.1.15,2013-01-31 20:20:00,
2013-01-31 15:30:00,42.2,34.5,29.00,West,266,10.0,10.0,74,0.00,,,0.00,Wunderground v.1.15,2013-01-31 20:30:00,
2013-01-31 15:40:00,41.5,33.1,29.02,West,267,8.0,13.0,72,0.00,,,0.00,Wunderground v.1.15,2013-01-31 20:40:00,
2013-01-31 15:50:00,41.3,33.0,29.03,West,270,10.0,10.0,72,0.00,,,0.00,Wunderground v.1.15,2013-01-31 20:50:00,
2013-01-31 16:00:00,41.1,31.7,29.03,West,266,7.0,7.0,69,0.00,,,0.00,Wunderground v.1.15,2013-01-31 21:00:00,
2013-01-31 16:10:00,41.2,27.5,29.04,WSW,240,8.0,13.0,58,0.00,,,0.00,Wunderground v.1.15,2013-01-31 21:10:00,
2013-01-31 16:20:00,41.2,25.8,29.04,WSW,242,12.0,12.0,54,0.00,,,0.00,Wunderground v.1.15,2013-01-31 21:20:00,
2013-01-31 16:30:00,40.6,25.7,29.04,SSW,195,10.0,10.0,55,0.00,,,0.00,Wunderground v.1.15,2013-01-31 21:30:00,
2013-01-31 16:40:00,40.5,25.1,29.06,WSW,243,9.0,12.0,54,0.00,,,0.00,Wunderground v.1.15,2013-01-31 21:40:00,
2013-01-31 16:50:00,40.1,24.8,29.07,West,259,10.0,19.0,54,0.00,,,0.00,Wunderground v.1.15,2013-01-31 21:50:00,
2013-01-31 17:00:00,39.9,24.6,29.07,SW,214,13.0,13.0,54,0.00,,,0.00,Wunderground v.1.15,2013-01-31 22:00:00,
2013-01-31 17:10:00,39.1,23.8,29.08,West,275,11.0,11.0,54,0.00,,,0.00,Wunderground v.1.15,2013-01-31 22:10:00,
2013-01-31 17:20:00,38.3,22.2,29.10,SW,224,15.0,15.0,52,0.00,,,0.00,Wunderground v.1.15,2013-01-31 22:20:00,
2013-01-31 17:30:00,37.8,21.7,29.10,WSW,247,12.0,12.0,52,0.00,,,0.00,Wunderground v.1.15,2013-01-31 22:30:00,
2013-01-31 17:40:00,37.3,20.8,29.12,WSW,239,12.0,12.0,51,0.00,,,0.00,Wunderground v.1.15,2013-01-31 22:40:00,
2013-01-31 17:50:00,37.0,21.0,29.13,SSW,213,12.0,18.0,52,0.00,,,0.00,Wunderground v.1.15,2013-01-31 22:50:00,
2013-01-31 18:00:00,36.5,20.1,29.13,SW,226,11.0,17.0,51,0.00,,,0.00,Wunderground v.1.15,2013-01-31 23:00:00,
2013-01-31 18:10:00,36.0,19.6,29.15,SSW,209,12.0,25.0,51,0.00,,,0.00,Wunderground v.1.15,2013-01-31 23:10:00,
2013-01-31 18:20:00,35.6,19.7,29.16,WSW,245,11.0,11.0,52,0.00,,,0.00,Wunderground v.1.15,2013-01-31 23:20:00,
2013-01-31 18:30:00,35.2,18.9,29.16,SW,231,11.0,12.0,51,0.00,,,0.00,Wunderground v.1.15,2013-01-31 23:30:00,
2013-01-31 18:40:00,35.0,18.7,29.17,WSW,253,11.0,16.0,51,0.00,,,0.00,Wunderground v.1.15,2013-01-31 23:40:00,
2013-01-31 18:50:00,34.7,18.4,29.18,WSW,250,10.0,10.0,51,0.00,,,0.00,Wunderground v.1.15,2013-01-31 23:50:00,
2013-01-31 19:00:00,34.4,17.7,29.18,WSW,258,9.0,14.0,50,0.00,,,0.00,Wunderground v.1.15,2013-02-01 00:00:00,
2013-01-31 19:10:00,34.0,17.7,29.19,SW,233,9.0,10.0,51,0.00,,,0.00,Wunderground v.1.15,2013-02-01 00:10:00,
2013-01-31 19:20:00,33.7,17.5,29.19,SSW,196,11.0,11.0,51,0.00,,,0.00,Wunderground v.1.15,2013-02-01 00:20:00,
2013-01-31 19:30:00,33.7,16.5,29.19,SW,234,11.0,18.0,49,0.00,,,0.00,Wunderground v.1.15,2013-02-01 00:30:00,
2013-01-31 19:40:00,33.4,15.8,29.20,WSW,243,10.0,10.0,48,0.00,,,0.00,Wunderground v.1.15,2013-02-01 00:40:00,
2013-01-31 19:50:00,33.2,15.6,29.20,WSW,237,11.0,11.0,48,0.00,,,0.00,Wunderground v.1.15,2013-02-01 00:50:00,
2013-01-31 20:00:00,32.9,15.3,29.20,WSW,252,10.0,16.0,48,0.00,,,0.00,Wunderground v.1.15,2013-02-01 01:00:00,
2013-01-31 20:10:00,32.9,14.8,29.21,SW,230,12.0,12.0,47,0.00,,,0.00,Wunderground v.1.15,2013-02-01 01:10:00,
2013-01-31 20:20:00,32.8,14.3,29.22,WSW,240,11.0,14.0,46,0.00,,,0.00,Wunderground v.1.15,2013-02-01 01:20:00,
2013-01-31 20:30:00,32.8,14.3,29.22,SSW,213,11.0,11.0,46,0.00,,,0.00,Wunderground v.1.15,2013-02-01 01:30:00,
2013-01-31 20:40:00,32.5,13.0,29.23,WSW,257,11.0,20.0,44,0.00,,,0.00,Wunderground v.1.15,2013-02-01 01:40:00,
2013-01-31 20:50:00,32.4,12.9,29.23,WSW,238,13.0,15.0,44,0.00,,,0.00,Wunderground v.1.15,2013-02-01 01:50:00,
2013-01-31 21:00:00,32.2,12.7,29.23,SW,230,12.0,18.0,44,0.00,,,0.00,Wunderground v.1.15,2013-02-01 02:00:00,
2013-01-31 21:10:00,31.9,12.9,29.24,SW,226,12.0,12.0,45,0.00,,,0.00,Wunderground v.1.15,2013-02-01 02:10:00,
2013-01-31 21:20:00,31.6,12.2,29.24,SW,229,11.0,16.0,44,0.00,,,0.00,Wunderground v.1.15,2013-02-01 02:20:00,
2013-01-31 21:30:00,31.3,13.4,29.24,WSW,238,9.0,10.0,47,0.00,,,0.00,Wunderground v.1.15,2013-02-01 02:30:00,
2013-01-31 21:40:00,31.2,13.3,29.26,West,260,11.0,12.0,47,0.00,,,0.00,Wunderground v.1.15,2013-02-01 02:40:00,
2013-01-31 21:50:00,30.9,12.5,29.26,SW,233,11.0,11.0,46,0.00,,,0.00,Wunderground v.1.15,2013-02-01 02:50:00,
2013-01-31 22:00:00,30.9,12.5,29.26,SW,219,11.0,12.0,46,0.00,,,0.00,Wunderground v.1.15,2013-02-01 03:00:00,
2013-01-31 22:10:00,30.7,11.3,29.26,WSW,240,11.0,11.0,44,0.00,,,0.00,Wunderground v.1.15,2013-02-01 03:10:00,
2013-01-31 22:20:00,30.7,11.8,29.27,SW,234,11.0,11.0,45,0.00,,,0.00,Wunderground v.1.15,2013-02-01 03:20:00,
2013-01-31 22:30:00,30.6,11.2,29.27,WSW,241,10.0,10.0,44,0.00,,,0.00,Wunderground v.1.15,2013-02-01 03:30:00,
2013-01-31 22:40:00,30.4,12.1,29.28,WSW,248,10.0,13.0,46,0.00,,,0.00,Wunderground v.1.15,2013-02-01 03:40:00,
2013-01-31 22:50:00,30.3,11.5,29.29,WNW,283,10.0,12.0,45,0.00,,,0.00,Wunderground v.1.15,2013-02-01 03:50:00,
2013-01-31 23:00:00,30.4,12.5,29.29,West,262,10.0,10.0,47,0.00,,,0.00,Wunderground v.1.15,2013-02-01 04:00:00,
2013-01-31 23:10:00,30.3,12.9,29.30,WSW,257,9.0,12.0,48,0.00,,,0.00,Wunderground v.1.15,2013-02-01 04:10:00,
2013-01-31 23:20:00,30.4,12.1,29.31,West,264,11.0,11.0,46,0.00,,,0.00,Wunderground v.1.15,2013-02-01 04:20:00,
2013-01-31 23:30:00,30.4,12.5,29.31,WSW,256,9.0,9.0,47,0.00,,,0.00,Wunderground v.1.15,2013-02-01 04:30:00,
2013-01-31 23:40:00,30.3,12.5,29.32,West,261,10.0,10.0,47,0.00,,,0.00,Wunderground v.1.15,2013-02-01 04:40:00,
2013-01-31 23:50:00,30.1,12.3,29.33,WSW,240,10.0,10.0,47,0.00,,,0.00,Wunderground v.1.15,2013-02-01 04:50:00,